Time;durP1;ratioP1;P1;durP2;ratioP2;P2;SDS_P1;SDS_P2;PMS_P1;PMS_P2;Temp;Humidity;BMP_temperature;BMP_pressure;BME280_temperature;BME280_humidity;BME280_pressure;Samples;Min_cycle;Max_cycle;Signal;HPM_P1;HPM_P2
2023/01/19 00:00:09;;;;;;;13.18;6.05;;;3.40;92.90;;;;;;5061948;28;20092;-74
2023/01/19 00:02:35;;;;;;;13.60;6.18;;;3.40;92.90;;;;;;5078475;28;20017;-74
2023/01/19 00:05:02;;;;;;;14.77;6.93;;;3.50;92.90;;;;;;5096206;28;20032;-74
2023/01/19 00:07:29;;;;;;;12.20;6.15;;;3.50;92.80;;;;;;5096188;28;20035;-74
2023/01/19 00:09:56;;;;;;;12.85;5.45;;;3.50;92.80;;;;;;5078315;28;20032;-74
2023/01/19 00:12:22;;;;;;;12.82;6.30;;;3.50;92.70;;;;;;5078534;28;20040;-74
2023/01/19 00:14:48;;;;;;;12.63;6.35;;;3.50;92.60;;;;;;5078437;28;20084;-74
2023/01/19 00:17:13;;;;;;;12.85;5.38;;;3.50;92.70;;;;;;5061630;28;20025;-74
2023/01/19 00:19:39;;;;;;;13.73;6.40;;;3.50;92.80;;;;;;5078394;28;20024;-74
2023/01/19 00:22:05;;;;;;;11.88;5.72;;;3.50;93.00;;;;;;5095893;28;20036;-74
2023/01/19 00:24:31;;;;;;;12.40;5.28;;;3.50;93.10;;;;;;5061231;28;20051;-74
2023/01/19 00:26:57;;;;;;;11.40;5.75;;;3.50;93.30;;;;;;5078378;28;20036;-74
2023/01/19 00:29:23;;;;;;;12.52;5.68;;;3.50;93.20;;;;;;5077945;28;20032;-74
2023/01/19 00:31:49;;;;;;;11.38;5.22;;;3.50;93.30;;;;;;5077924;28;20036;-74
2023/01/19 00:34:15;;;;;;;12.85;5.45;;;3.50;93.30;;;;;;5061386;28;20032;-74
2023/01/19 00:36:41;;;;;;;12.90;5.75;;;3.40;93.30;;;;;;5095617;28;20076;-74
2023/01/19 00:39:07;;;;;;;9.00;4.18;;;3.40;93.50;;;;;;5095616;28;20027;-74
2023/01/19 00:44:16;;;;;;;7.60;3.80;;;3.40;93.50;;;;;;5066618;28;20043;-74
2023/01/19 00:46:42;;;;;;;13.52;5.25;;;3.40;93.50;;;;;;5095452;28;20033;-74
2023/01/19 00:49:08;;;;;;;12.20;5.53;;;3.30;93.60;;;;;;5060965;28;20025;-74
2023/01/19 00:51:33;;;;;;;10.40;5.28;;;3.30;93.60;;;;;;5095345;28;20501;-74
2023/01/19 00:54:03;;;;;;;14.07;5.82;;;3.30;93.60;;;;;;5077533;28;20052;-74
2023/01/19 00:56:32;;;;;;;15.65;6.00;;;3.30;93.60;;;;;;5078436;28;20020;-74
2023/01/19 00:58:58;;;;;;;6.15;3.58;;;3.30;93.70;;;;;;5077598;28;20021;-74
2023/01/19 01:01:24;;;;;;;11.40;5.60;;;3.20;93.70;;;;;;5077493;28;20388;-74
2023/01/19 01:03:49;;;;;;;14.50;6.22;;;3.20;93.70;;;;;;5077527;28;20054;-74
2023/01/19 01:06:15;;;;;;;9.18;4.05;;;3.30;93.80;;;;;;5094084;28;20506;-74
2023/01/19 01:08:41;;;;;;;13.70;6.63;;;3.30;93.60;;;;;;5060676;28;20025;-74
2023/01/19 01:11:06;;;;;;;11.65;5.78;;;3.30;93.60;;;;;;5060580;28;20056;-74
2023/01/19 01:13:32;;;;;;;10.98;5.32;;;3.40;93.60;;;;;;5060502;28;20023;-74
2023/01/19 01:15:58;;;;;;;12.35;5.38;;;3.30;93.60;;;;;;5077148;28;20025;-74
2023/01/19 01:18:24;;;;;;;13.98;5.80;;;3.40;93.60;;;;;;5077402;28;20039;-74
2023/01/19 01:20:50;;;;;;;11.52;4.90;;;3.40;93.60;;;;;;5077202;28;20017;-74
2023/01/19 01:23:21;;;;;;;10.20;5.22;;;3.40;93.60;;;;;;5060394;28;20034;-74
2023/01/19 01:25:47;;;;;;;11.70;5.75;;;3.40;93.60;;;;;;5077770;28;20057;-74
2023/01/19 01:28:12;;;;;;;8.88;4.18;;;3.40;93.60;;;;;;5077071;28;20048;-74
2023/01/19 01:30:39;;;;;;;11.45;5.40;;;3.40;93.60;;;;;;5076965;28;20033;-74
2023/01/19 01:33:06;;;;;;;15.18;4.70;;;3.40;93.60;;;;;;5060734;28;20016;-74
2023/01/19 01:35:32;;;;;;;11.20;5.35;;;3.40;93.40;;;;;;5076943;28;20025;-74
2023/01/19 01:37:59;;;;;;;10.57;5.35;;;3.40;93.30;;;;;;5076950;28;20037;-74
2023/01/19 01:40:25;;;;;;;15.00;6.22;;;3.40;93.40;;;;;;5094506;28;20059;-74
2023/01/19 01:42:51;;;;;;;12.25;5.10;;;3.40;93.40;;;;;;5094312;28;20021;-74
2023/01/19 01:45:38;;;;;;;14.95;5.80;;;3.40;93.40;;;;;;5076551;28;20032;-74
2023/01/19 01:48:36;;;;;;;12.98;6.28;;;3.50;93.20;;;;;;5076671;28;20397;-74
2023/01/19 01:51:25;;;;;;;8.98;4.28;;;3.50;93.20;;;;;;5089084;28;20040;-74
2023/01/19 01:54:27;;;;;;;14.05;6.03;;;3.40;93.10;;;;;;5076377;28;20020;-74
2023/01/19 01:56:58;;;;;;;13.18;6.03;;;3.40;93.30;;;;;;5076402;28;20054;-74
2023/01/19 01:59:33;;;;;;;11.85;5.75;;;3.40;93.20;;;;;;5076391;28;20020;-74
2023/01/19 02:05:05;;;;;;;8.02;3.95;;;3.40;93.40;;;;;;5094180;28;20044;-74
2023/01/19 02:13:19;;;;;;;13.43;5.43;;;3.40;93.50;;;;;;5064874;28;20063;-74
2023/01/19 02:15:52;;;;;;;8.57;4.13;;;3.40;93.60;;;;;;5059859;28;20024;-74
2023/01/19 02:18:20;;;;;;;11.40;4.78;;;3.30;93.60;;;;;;5093501;28;20028;-74
2023/01/19 02:21:17;;;;;;;16.52;6.72;;;3.20;93.70;;;;;;5093661;28;20039;-74
2023/01/19 02:23:53;;;;;;;12.02;5.57;;;3.20;93.80;;;;;;5093664;28;20028;-74
2023/01/19 02:26:23;;;;;;;11.93;6.07;;;3.10;94.10;;;;;;5093593;28;20036;-73
2023/01/19 02:28:53;;;;;;;9.43;4.35;;;3.10;94.20;;;;;;5075837;28;20028;-74
2023/01/19 02:31:19;;;;;;;13.73;5.25;;;3.10;94.30;;;;;;5093639;28;20028;-73
2023/01/19 02:33:45;;;;;;;15.85;6.53;;;3.00;94.10;;;;;;5075558;28;20036;-74
2023/01/19 02:36:14;;;;;;;9.68;5.05;;;3.00;94.20;;;;;;5075868;28;20036;-74
2023/01/19 02:38:40;;;;;;;13.27;6.15;;;3.00;94.20;;;;;;5093465;28;20448;-73
2023/01/19 02:41:08;;;;;;;16.13;6.18;;;2.90;94.70;;;;;;5093376;28;20020;-73
2023/01/19 02:43:35;;;;;;;14.43;5.97;;;2.90;94.50;;;;;;5075625;28;20027;-74
2023/01/19 02:46:02;;;;;;;8.68;4.53;;;2.90;94.60;;;;;;5093327;28;20029;-74
2023/01/19 02:48:27;;;;;;;14.07;5.75;;;2.80;94.70;;;;;;5075716;28;20024;-74
2023/01/19 02:51:03;;;;;;;12.55;5.57;;;2.80;94.70;;;;;;5058984;28;20032;-74
2023/01/19 02:53:28;;;;;;;5.57;3.15;;;2.80;94.90;;;;;;5093237;28;20036;-74
2023/01/19 02:56:33;;;;;;;11.40;5.03;;;2.80;95.00;;;;;;5093385;28;20101;-74
2023/01/19 02:59:14;;;;;;;9.40;4.47;;;2.70;95.20;;;;;;5093213;28;20040;-74
2023/01/19 03:01:47;;;;;;;10.57;5.22;;;2.70;95.40;;;;;;5093246;28;20489;-74
2023/01/19 03:04:32;;;;;;;;;;;2.70;95.40;;;;;;5075900;28;20511;-74
2023/01/19 03:07:08;;;;;;;6.38;4.07;;;2.70;95.20;;;;;;5052260;28;19904;-74
2023/01/19 03:09:51;;;;;;;8.50;4.00;;;2.60;95.20;;;;;;5093098;28;20043;-74
2023/01/19 03:12:39;;;;;;;10.20;4.72;;;2.60;95.40;;;;;;5093039;28;20028;-73
2023/01/19 03:15:28;;;;;;;9.18;4.28;;;2.60;95.50;;;;;;5093120;28;20021;-74
2023/01/19 03:17:56;;;;;;;8.75;4.82;;;2.50;95.60;;;;;;5093066;28;20035;-73
2023/01/19 03:20:24;;;;;;;11.55;5.95;;;2.50;95.80;;;;;;5075196;28;20027;-73
2023/01/19 03:23:01;;;;;;;10.85;5.43;;;2.50;95.90;;;;;;5092985;28;20025;-73
2023/01/19 03:25:28;;;;;;;15.75;5.40;;;2.50;96.10;;;;;;5058163;28;20071;-74
2023/01/19 03:27:56;;;;;;;9.07;5.80;;;2.60;96.00;;;;;;5051905;28;20044;-74
2023/01/19 03:30:27;;;;;;;9.52;4.90;;;2.60;96.00;;;;;;5054895;28;20036;-74
2023/01/19 03:32:58;;;;;;;12.43;5.90;;;2.60;96.00;;;;;;5055731;28;20051;-74
2023/01/19 03:35:28;;;;;;;13.53;6.10;;;2.60;96.00;;;;;;5056770;28;20152;-74
2023/01/19 03:37:56;;;;;;;10.63;5.18;;;2.50;96.10;;;;;;5055673;28;20022;-74
2023/01/19 03:40:27;;;;;;;12.10;6.20;;;2.60;96.00;;;;;;5055656;28;20052;-74
2023/01/19 03:42:52;;;;;;;7.57;3.50;;;2.70;95.60;;;;;;5039179;28;20068;-74
2023/01/19 03:45:20;;;;;;;7.38;3.60;;;2.60;95.40;;;;;;5039011;28;20053;-74
2023/01/19 03:47:46;;;;;;;7.35;3.78;;;2.60;95.50;;;;;;5055657;28;20089;-74
2023/01/19 03:50:22;;;;;;;8.15;4.38;;;2.60;95.50;;;;;;5039007;28;20060;-73
2023/01/19 03:53:06;;;;;;;5.85;3.97;;;2.60;95.50;;;;;;5055352;28;20018;-74
2023/01/19 03:55:33;;;;;;;8.25;4.32;;;2.60;95.50;;;;;;5056375;28;20021;-74
2023/01/19 03:57:59;;;;;;;8.05;4.20;;;2.60;95.50;;;;;;5055426;28;20028;-74
2023/01/19 04:00:24;;;;;;;5.85;3.90;;;2.50;95.60;;;;;;5038765;28;20030;-73
2023/01/19 04:02:50;;;;;;;8.82;4.75;;;2.50;95.70;;;;;;5056178;28;20025;-74
2023/01/19 04:05:16;;;;;;;3.22;2.05;;;2.50;95.70;;;;;;5055173;28;20071;-74
2023/01/19 04:07:42;;;;;;;8.35;3.15;;;2.60;95.60;;;;;;5038562;28;20037;-73
2023/01/19 04:10:11;;;;;;;7.45;3.70;;;2.50;95.60;;;;;;5055343;28;20037;-74
2023/01/19 04:12:38;;;;;;;8.77;4.32;;;2.50;95.60;;;;;;5055986;28;20055;-74
2023/01/19 04:15:05;;;;;;;5.80;3.30;;;2.50;95.60;;;;;;5055045;28;20045;-74
2023/01/19 04:17:31;;;;;;;7.35;4.63;;;2.50;95.70;;;;;;5055963;28;20034;-74
2023/01/19 04:19:56;;;;;;;6.53;3.88;;;2.60;95.60;;;;;;5038352;28;20048;-73
2023/01/19 04:22:22;;;;;;;5.85;3.10;;;2.50;95.50;;;;;;5038410;28;20034;-74
2023/01/19 04:24:47;;;;;;;6.80;3.60;;;2.50;95.50;;;;;;5054729;28;20069;-73
2023/01/19 04:27:15;;;;;;;7.03;3.80;;;2.50;95.50;;;;;;5038188;28;20076;-73
2023/01/19 04:29:41;;;;;;;6.60;3.55;;;2.50;95.50;;;;;;5054780;28;20089;-74
2023/01/19 04:32:07;;;;;;;9.07;3.55;;;2.50;95.50;;;;;;5055580;28;20033;-74
2023/01/19 04:34:32;;;;;;;5.63;3.10;;;2.50;95.60;;;;;;5054633;28;20033;-74
2023/01/19 04:36:58;;;;;;;5.60;3.45;;;2.50;95.70;;;;;;5038084;28;20036;-73
2023/01/19 04:39:24;;;;;;;8.00;3.85;;;2.50;95.80;;;;;;5055532;28;20033;-74
2023/01/19 04:41:51;;;;;;;4.30;2.63;;;2.50;95.70;;;;;;5054402;28;20089;-74
2023/01/19 04:44:16;;;;;;;5.72;3.50;;;2.50;95.70;;;;;;5037962;28;20029;-74
2023/01/19 04:46:42;;;;;;;4.97;2.20;;;2.60;95.70;;;;;;5054553;28;20081;-73
2023/01/19 04:49:09;;;;;;;5.35;3.45;;;2.50;95.60;;;;;;5037900;28;20098;-74
2023/01/19 04:51:35;;;;;;;5.68;3.00;;;2.60;95.60;;;;;;5055332;28;20040;-73
2023/01/19 04:54:01;;;;;;;4.30;2.60;;;2.60;95.60;;;;;;5037647;28;20033;-73
2023/01/19 04:56:27;;;;;;;4.30;2.30;;;2.50;95.60;;;;;;5054346;28;20033;-74
2023/01/19 04:58:53;;;;;;;4.68;2.42;;;2.50;95.80;;;;;;5054282;28;20026;-73
2023/01/19 05:01:19;;;;;;;3.90;2.08;;;2.50;95.90;;;;;;5054167;28;20026;-73
2023/01/19 05:03:44;;;;;;;3.88;2.35;;;2.50;96.00;;;;;;5054248;28;20029;-74
2023/01/19 05:06:10;;;;;;;3.90;2.08;;;2.50;95.90;;;;;;5037638;28;20022;-73
2023/01/19 05:08:36;;;;;;;3.00;1.67;;;2.50;96.00;;;;;;5053971;28;20033;-73
2023/01/19 05:11:02;;;;;;;1.55;1.20;;;2.50;96.00;;;;;;5053999;28;20030;-73
2023/01/19 05:13:27;;;;;;;3.40;1.70;;;2.50;96.00;;;;;;5053789;28;20030;-74
2023/01/19 05:15:53;;;;;;;2.88;1.70;;;2.60;96.00;;;;;;5053884;28;20089;-74
2023/01/19 05:18:19;;;;;;;3.50;1.77;;;2.60;96.00;;;;;;5054821;28;20444;-73
2023/01/19 05:20:44;;;;;;;1.48;1.17;;;2.60;95.90;;;;;;5054745;28;20041;-74
2023/01/19 05:23:10;;;;;;;3.15;1.83;;;2.60;95.90;;;;;;5054718;28;20041;-73
2023/01/19 05:25:36;;;;;;;2.67;1.60;;;2.60;95.80;;;;;;5084199;28;20578;-74
2023/01/19 05:28:02;;;;;;;2.60;1.60;;;2.70;95.80;;;;;;5060344;28;20032;-73
2023/01/19 05:30:28;;;;;;;4.43;2.00;;;2.70;95.80;;;;;;5077142;28;20032;-74
2023/01/19 05:32:54;;;;;;;2.60;1.63;;;2.60;95.80;;;;;;5060192;28;20028;-74
2023/01/19 05:35:19;;;;;;;2.22;1.58;;;2.60;95.80;;;;;;5076791;28;20071;-74
2023/01/19 05:37:45;;;;;;;3.30;1.52;;;2.60;95.90;;;;;;5076913;28;20020;-74
2023/01/19 05:40:11;;;;;;;3.65;1.80;;;2.60;95.80;;;;;;5043645;28;20033;-74
2023/01/19 05:42:37;;;;;;;2.55;1.48;;;2.60;95.90;;;;;;5094339;28;20044;-74
2023/01/19 05:45:03;;;;;;;5.55;2.15;;;2.70;95.90;;;;;;5076663;28;20033;-74
2023/01/19 05:47:29;;;;;;;2.67;1.58;;;2.60;95.90;;;;;;5094251;28;20032;-74
2023/01/19 05:49:56;;;;;;;2.33;1.33;;;2.60;95.90;;;;;;5094216;28;20029;-74
2023/01/19 05:52:21;;;;;;;2.80;1.48;;;2.70;95.80;;;;;;5059260;28;20035;-74
2023/01/19 05:54:47;;;;;;;2.47;1.60;;;2.60;95.90;;;;;;5059924;28;20024;-74
2023/01/19 05:57:13;;;;;;;1.98;1.10;;;2.70;95.80;;;;;;5076598;28;20021;-74
2023/01/19 05:59:39;;;;;;;2.05;1.30;;;2.60;95.80;;;;;;5094013;28;20046;-74
2023/01/19 06:02:05;;;;;;;1.83;1.30;;;2.60;95.80;;;;;;5093974;28;20029;-74
2023/01/19 06:04:30;;;;;;;4.45;1.38;;;2.70;95.70;;;;;;5093930;28;20042;-74
2023/01/19 06:06:56;;;;;;;5.55;2.00;;;2.70;95.60;;;;;;5076195;28;20119;-74
2023/01/19 06:09:22;;;;;;;2.35;1.45;;;2.70;95.60;;;;;;5076218;28;20035;-74
2023/01/19 06:11:47;;;;;;;3.55;1.75;;;2.70;95.60;;;;;;5093774;28;20076;-74
2023/01/19 06:14:13;;;;;;;3.30;1.80;;;2.70;95.50;;;;;;5093756;28;20039;-74
2023/01/19 06:16:39;;;;;;;3.78;1.77;;;2.80;95.50;;;;;;5093764;28;20024;-74
2023/01/19 06:19:05;;;;;;;4.93;2.55;;;2.80;95.40;;;;;;5093849;28;20027;-74
2023/01/19 06:21:31;;;;;;;4.63;2.47;;;2.80;95.40;;;;;;5093605;28;20047;-74
2023/01/19 06:23:57;;;;;;;4.88;2.67;;;2.80;95.30;;;;;;5059048;28;20020;-74
2023/01/19 06:26:23;;;;;;;5.80;2.33;;;2.90;95.30;;;;;;5093555;28;20027;-74
2023/01/19 06:28:50;;;;;;;5.18;2.47;;;2.90;95.30;;;;;;5075768;28;20502;-74
2023/01/19 06:31:16;;;;;;;6.43;2.40;;;2.90;95.20;;;;;;5093521;28;20028;-74
2023/01/19 06:33:42;;;;;;;6.22;2.95;;;2.90;95.20;;;;;;5075661;28;20033;-74
2023/01/19 06:36:08;;;;;;;4.35;2.63;;;2.90;95.20;;;;;;5075882;28;20028;-74
2023/01/19 06:38:34;;;;;;;6.07;2.85;;;2.90;95.20;;;;;;5075788;28;20033;-74
2023/01/19 06:41:02;;;;;;;6.75;2.80;;;2.90;95.20;;;;;;5075773;28;20031;-74
2023/01/19 06:43:28;;;;;;;5.57;2.75;;;2.90;95.10;;;;;;5075615;28;20028;-74
2023/01/19 06:45:55;;;;;;;4.85;2.90;;;2.80;95.20;;;;;;5093345;28;20055;-74
2023/01/19 06:48:20;;;;;;;7.35;3.05;;;2.80;95.40;;;;;;5075922;28;20031;-74
2023/01/19 06:50:47;;;;;;;6.00;3.08;;;2.80;95.40;;;;;;5075521;28;20021;-74
2023/01/19 06:53:16;;;;;;;5.30;3.33;;;2.80;95.40;;;;;;5075669;28;20029;-74
2023/01/19 06:55:42;;;;;;;6.70;2.92;;;2.80;95.50;;;;;;5059480;28;20044;-74
2023/01/19 06:58:08;;;;;;;7.30;3.72;;;2.80;95.50;;;;;;5075780;28;20024;-74
2023/01/19 07:00:34;;;;;;;5.93;3.25;;;2.70;95.60;;;;;;5093182;28;20040;-74
2023/01/19 07:03:00;;;;;;;6.55;3.42;;;2.70;95.60;;;;;;5042453;28;20025;-74
2023/01/19 07:05:25;;;;;;;8.50;4.75;;;2.80;95.50;;;;;;5061072;28;20041;-74
2023/01/19 07:07:52;;;;;;;7.07;3.97;;;2.80;95.60;;;;;;5079535;28;20059;-74
2023/01/19 07:10:18;;;;;;;10.48;4.95;;;2.70;95.60;;;;;;5079504;28;20024;-74
2023/01/19 07:12:46;;;;;;;7.93;4.47;;;2.70;95.70;;;;;;5097188;28;20039;-74
2023/01/19 07:15:13;;;;;;;9.13;4.60;;;2.70;95.70;;;;;;5079436;28;20032;-74
2023/01/19 07:17:40;;;;;;;9.85;4.53;;;2.70;95.80;;;;;;5097150;28;20031;-74
2023/01/19 07:20:10;;;;;;;10.18;4.85;;;2.70;95.80;;;;;;5097133;28;20017;-74
2023/01/19 07:22:35;;;;;;;9.75;4.43;;;2.70;95.80;;;;;;5079482;28;20115;-74
2023/01/19 07:25:01;;;;;;;12.77;6.35;;;2.70;95.90;;;;;;5096850;28;20049;-74
2023/01/19 07:27:27;;;;;;;10.73;4.97;;;2.70;95.90;;;;;;5062656;28;20108;-74
2023/01/19 07:29:53;;;;;;;10.43;6.00;;;2.80;95.90;;;;;;5062657;28;20031;-74
2023/01/19 07:32:18;;;;;;;11.65;5.78;;;2.80;95.80;;;;;;5096776;28;20070;-74
2023/01/19 07:34:44;;;;;;;13.65;6.93;;;2.80;95.80;;;;;;5096809;28;20029;-74
2023/01/19 07:37:10;;;;;;;12.95;7.30;;;2.80;95.80;;;;;;5079257;28;20036;-74
2023/01/19 07:39:35;;;;;;;15.27;6.32;;;2.80;95.80;;;;;;5079044;28;20020;-74
2023/01/19 07:42:01;;;;;;;12.85;7.32;;;2.80;95.90;;;;;;5079113;28;20031;-74
2023/01/19 07:44:27;;;;;;;18.02;8.10;;;2.80;95.90;;;;;;5062243;28;20050;-74
2023/01/19 07:46:52;;;;;;;15.15;7.72;;;2.90;95.90;;;;;;5062364;28;20070;-74
2023/01/19 07:49:19;;;;;;;13.90;7.00;;;2.90;95.80;;;;;;5078963;28;20025;-74
2023/01/19 07:51:45;;;;;;;16.90;7.90;;;2.90;95.90;;;;;;5045972;28;20039;-74
2023/01/19 07:54:11;;;;;;;13.80;7.72;;;2.90;95.80;;;;;;5045724;28;20028;-74
2023/01/19 07:56:36;;;;;;;16.65;8.63;;;2.90;95.80;;;;;;5078640;28;20509;-74
2023/01/19 07:59:02;;;;;;;19.75;9.05;;;3.00;95.70;;;;;;5096331;28;20028;-74
2023/01/19 08:01:28;;;;;;;17.15;8.85;;;3.00;95.70;;;;;;5096309;28;20127;-74
2023/01/19 08:03:54;;;;;;;18.67;9.02;;;3.10;95.70;;;;;;5078685;28;20032;-74
2023/01/19 08:06:25;;;;;;;22.35;9.65;;;3.10;95.70;;;;;;5061980;28;20028;-74
2023/01/19 08:08:50;;;;;;;18.58;9.55;;;3.10;95.80;;;;;;5096153;28;20024;-74
2023/01/19 08:11:16;;;;;;;19.65;9.52;;;3.10;95.90;;;;;;5096131;28;20043;-74
2023/01/19 08:13:42;;;;;;;22.13;11.15;;;3.10;96.00;;;;;;5061753;28;20092;-74
2023/01/19 08:16:08;;;;;;;20.02;10.63;;;3.10;95.80;;;;;;5061503;28;20031;-74
2023/01/19 08:18:33;;;;;;;21.48;10.30;;;3.10;95.80;;;;;;5096028;28;20017;-74
2023/01/19 08:20:59;;;;;;;23.35;12.52;;;3.10;95.80;;;;;;5061540;28;20031;-74
2023/01/19 08:23:26;;;;;;;21.48;11.55;;;3.10;95.80;;;;;;5078401;28;20028;-74
2023/01/19 08:25:53;;;;;;;20.17;9.75;;;3.10;95.80;;;;;;5095771;28;20055;-74
2023/01/19 08:28:19;;;;;;;18.10;9.63;;;3.20;95.70;;;;;;5095838;28;20051;-74
2023/01/19 08:30:46;;;;;;;19.38;9.93;;;3.10;95.80;;;;;;5078067;28;20029;-74
2023/01/19 08:33:12;;;;;;;24.40;10.80;;;3.20;95.70;;;;;;5078158;28;20028;-74
2023/01/19 08:35:40;;;;;;;20.63;10.93;;;3.20;95.70;;;;;;5078054;28;20028;-74
2023/01/19 08:38:07;;;;;;;22.90;9.90;;;3.20;95.70;;;;;;5095791;28;20016;-74
2023/01/19 08:40:35;;;;;;;22.92;11.27;;;3.30;95.60;;;;;;5095652;28;20545;-74
2023/01/19 08:43:15;;;;;;;24.75;11.95;;;3.30;95.50;;;;;;5095756;28;20066;-74
2023/01/19 08:45:49;;;;;;;18.80;9.18;;;3.30;95.40;;;;;;5095571;28;20062;-74
2023/01/19 08:48:17;;;;;;;19.55;9.90;;;3.30;95.50;;;;;;5077808;28;20031;-74
2023/01/19 08:50:45;;;;;;;25.92;10.80;;;3.30;95.50;;;;;;5077706;28;20542;-74
2023/01/19 08:53:11;;;;;;;19.60;10.07;;;3.40;95.40;;;;;;5095318;28;20021;-74
2023/01/19 08:55:38;;;;;;;22.50;10.18;;;3.50;95.40;;;;;;5077682;28;20030;-74
2023/01/19 08:58:05;;;;;;;21.35;11.20;;;3.70;95.40;;;;;;5061307;28;20084;-74
2023/01/19 09:00:36;;;;;;;18.20;7.90;;;4.00;95.10;;;;;;5077515;28;20040;-74
2023/01/19 09:03:03;;;;;;;42.10;17.57;;;4.20;94.70;;;;;;5077549;28;20028;-74
2023/01/19 09:05:36;;;;;;;31.02;13.48;;;4.30;94.20;;;;;;5077544;28;20290;-74
2023/01/19 09:08:02;;;;;;;38.45;17.17;;;4.50;94.00;;;;;;5095070;28;20024;-74
2023/01/19 09:10:30;;;;;;;21.30;11.25;;;4.60;93.30;;;;;;5077447;28;20367;-74
2023/01/19 09:12:56;;;;;;;15.63;9.18;;;4.80;93.60;;;;;;5060919;28;20025;-74
2023/01/19 09:15:22;;;;;;;21.80;11.40;;;4.90;92.80;;;;;;5077366;28;20024;-74
2023/01/19 09:17:51;;;;;;;21.23;10.38;;;5.00;93.00;;;;;;5060540;28;20098;-74
2023/01/19 09:20:16;;;;;;;17.50;9.50;;;4.90;92.60;;;;;;5077354;28;20054;-74
2023/01/19 09:22:42;;;;;;;16.80;7.95;;;4.80;92.60;;;;;;5077061;28;20033;-74
2023/01/19 09:25:08;;;;;;;15.98;7.90;;;4.70;92.70;;;;;;5094570;28;20048;-74
2023/01/19 09:27:34;;;;;;;18.35;9.68;;;4.50;92.90;;;;;;5076224;28;20039;-74
2023/01/19 09:30:00;;;;;;;16.50;7.35;;;4.40;93.10;;;;;;5094603;28;20025;-74
2023/01/19 09:32:25;;;;;;;16.35;7.63;;;4.30;93.30;;;;;;5094510;28;20024;-74
2023/01/19 09:34:52;;;;;;;18.20;9.00;;;4.10;93.40;;;;;;5060084;28;20032;-74
2023/01/19 09:37:18;;;;;;;23.98;9.55;;;4.00;93.50;;;;;;5076845;28;20358;-74
2023/01/19 09:39:44;;;;;;;35.00;16.30;;;3.90;93.70;;;;;;5060061;28;20044;-74
2023/01/19 09:42:36;;;;;;;14.55;7.05;;;3.80;93.70;;;;;;5076735;28;20020;-74
2023/01/19 09:45:07;;;;;;;21.85;9.52;;;3.70;93.80;;;;;;5076655;28;20050;-74
2023/01/19 09:47:35;;;;;;;17.35;8.38;;;3.50;94.20;;;;;;5094307;28;20024;-74
2023/01/19 09:50:09;;;;;;;17.60;8.85;;;3.50;94.50;;;;;;5076515;28;20036;-74
2023/01/19 09:52:38;;;;;;;27.33;12.27;;;3.40;94.80;;;;;;5094307;28;20080;-74
2023/01/19 09:55:09;;;;;;;18.92;7.90;;;3.50;95.00;;;;;;5076420;28;20050;-74
2023/01/19 09:57:35;;;;;;;32.38;12.20;;;3.60;95.00;;;;;;5094118;28;20020;-74
2023/01/19 10:00:02;;;;;;;29.60;12.35;;;3.60;94.90;;;;;;5094067;28;20066;-74
2023/01/19 10:02:47;;;;;;;25.80;12.25;;;3.80;94.90;;;;;;5059931;28;20032;-74
2023/01/19 10:05:35;;;;;;;22.75;10.50;;;3.80;94.70;;;;;;5076393;28;20029;-74
2023/01/19 10:08:07;;;;;;;26.13;10.65;;;3.70;94.50;;;;;;5093862;28;20029;-73
2023/01/19 10:10:34;;;;;;;29.60;11.60;;;3.70;94.70;;;;;;5076333;28;20046;-74
2023/01/19 10:13:26;;;;;;;29.75;11.93;;;3.60;94.70;;;;;;5093486;28;20111;-74
2023/01/19 10:15:58;;;;;;;28.13;11.80;;;3.60;94.70;;;;;;5076080;28;20021;-74
2023/01/19 10:18:46;;;;;;;29.20;12.50;;;3.60;94.80;;;;;;5093723;28;20025;-74
2023/01/19 10:21:34;;;;;;;24.85;11.13;;;3.60;94.80;;;;;;5076094;28;20033;-74
2023/01/19 10:24:22;;;;;;;31.90;12.90;;;3.60;95.00;;;;;;5093628;28;20088;-75
2023/01/19 10:26:52;;;;;;;29.20;11.45;;;3.60;94.90;;;;;;5076090;28;20067;-74
2023/01/19 10:29:35;;;;;;;27.13;10.45;;;3.60;95.00;;;;;;5093585;28;20059;-74
2023/01/19 10:32:07;;;;;;;27.42;11.95;;;3.60;95.10;;;;;;5075964;28;20048;-74
2023/01/19 10:34:32;;;;;;;25.65;11.32;;;3.50;95.10;;;;;;5093575;28;20021;-74
2023/01/19 10:37:11;;;;;;;29.10;11.50;;;3.50;95.30;;;;;;5059166;28;20100;-74
2023/01/19 10:39:37;;;;;;;27.05;11.38;;;3.50;95.40;;;;;;5093341;28;20020;-74
2023/01/19 10:42:03;;;;;;;30.80;13.48;;;3.50;95.50;;;;;;5075878;28;20047;-74
2023/01/19 10:44:34;;;;;;;37.78;13.70;;;3.60;95.40;;;;;;5059342;28;20028;-74
2023/01/19 10:47:01;;;;;;;32.90;13.98;;;3.60;95.70;;;;;;5093396;28;20023;-74
2023/01/19 10:49:35;;;;;;;29.50;12.60;;;3.70;95.50;;;;;;5093333;28;20040;-74
2023/01/19 10:52:01;;;;;;;28.33;12.20;;;3.80;95.40;;;;;;5093297;28;20085;-74
2023/01/19 10:54:30;;;;;;;23.52;9.80;;;3.90;95.30;;;;;;5093297;28;20021;-74
2023/01/19 10:57:06;;;;;;;31.60;12.57;;;3.90;95.30;;;;;;5075496;28;20031;-74
2023/01/19 10:59:43;;;;;;;30.08;12.48;;;4.00;95.00;;;;;;5093278;28;20024;-74
2023/01/19 11:02:12;;;;;;;26.92;11.13;;;4.10;95.00;;;;;;5075505;28;20032;-74
2023/01/19 11:04:38;;;;;;;33.38;12.73;;;4.10;94.80;;;;;;5075507;28;20385;-74
2023/01/19 11:07:13;;;;;;;29.55;12.25;;;4.10;94.60;;;;;;5075670;28;20039;-74
2023/01/19 11:09:39;;;;;;;34.33;13.77;;;4.00;94.70;;;;;;5075263;28;20031;-74
2023/01/19 11:12:14;;;;;;;33.05;12.75;;;4.10;94.90;;;;;;5058769;28;20100;-74
2023/01/19 11:14:39;;;;;;;24.05;11.48;;;4.10;94.80;;;;;;5075414;28;20021;-74
2023/01/19 11:17:15;;;;;;;25.98;11.98;;;4.10;94.80;;;;;;5093050;28;20039;-74
2023/01/19 11:19:41;;;;;;;25.35;10.25;;;4.10;94.70;;;;;;5075442;28;20032;-74
2023/01/19 11:22:20;;;;;;;27.08;11.13;;;4.10;94.70;;;;;;5058699;28;20024;-74
2023/01/19 11:24:46;;;;;;;25.00;9.82;;;4.10;95.00;;;;;;5092844;28;20044;-74
2023/01/19 11:27:16;;;;;;;27.13;10.85;;;4.10;94.90;;;;;;5075096;28;20036;-74
2023/01/19 11:29:47;;;;;;;24.27;10.93;;;4.10;94.90;;;;;;5075376;28;20023;-74
2023/01/19 11:32:21;;;;;;;21.47;9.97;;;4.20;94.80;;;;;;5092961;28;20021;-74
2023/01/19 11:34:47;;;;;;;29.17;10.52;;;4.30;94.70;;;;;;5093051;28;20050;-74
2023/01/19 11:37:19;;;;;;;22.65;10.70;;;4.30;94.80;;;;;;5075104;28;20021;-74
2023/01/19 11:39:47;;;;;;;24.42;10.20;;;4.40;94.50;;;;;;5075099;28;20051;-74
2023/01/19 11:42:14;;;;;;;21.95;9.73;;;4.50;94.70;;;;;;5092826;28;20021;-74
2023/01/19 11:44:45;;;;;;;22.25;10.02;;;4.60;94.50;;;;;;5058621;28;20025;-74
2023/01/19 11:47:34;;;;;;;24.13;10.30;;;4.60;94.40;;;;;;5075035;28;20025;-74
2023/01/19 11:50:24;;;;;;;22.27;9.30;;;4.80;94.50;;;;;;5075091;28;20027;-74
2023/01/19 11:53:16;;;;;;;21.58;9.27;;;4.80;94.00;;;;;;5061252;28;20060;-74
2023/01/19 11:56:03;;;;;;;16.65;8.65;;;4.90;93.80;;;;;;5078793;28;20021;-74
2023/01/19 11:58:30;;;;;;;21.13;9.35;;;4.90;93.60;;;;;;5096433;28;20016;-74
2023/01/19 12:01:02;;;;;;;27.10;10.93;;;5.10;94.00;;;;;;5096263;28;20032;-74
2023/01/19 12:03:31;;;;;;;21.80;9.77;;;5.20;94.00;;;;;;5096359;28;20021;-74
2023/01/19 12:06:20;;;;;;;24.50;10.10;;;5.30;93.40;;;;;;5096278;28;20032;-74
2023/01/19 12:08:56;;;;;;;18.92;8.65;;;5.40;93.10;;;;;;5078453;28;20044;-74
2023/01/19 12:11:30;;;;;;;20.40;9.52;;;5.40;92.40;;;;;;5096368;28;20366;-74
2023/01/19 12:13:56;;;;;;;15.52;7.43;;;5.40;92.40;;;;;;5078343;28;20025;-74
2023/01/19 12:16:28;;;;;;;17.17;7.60;;;5.50;92.30;;;;;;5078321;28;20032;-74
2023/01/19 12:19:14;;;;;;;;;;;5.50;92.40;;;;;;5078853;28;20027;-74
2023/01/19 12:21:40;;;;;;;16.95;6.88;;;5.60;92.00;;;;;;5095290;28;19912;-74
2023/01/19 12:24:09;;;;;;;17.42;8.45;;;5.60;92.00;;;;;;5061412;28;20093;-75
2023/01/19 12:26:49;;;;;;;17.55;7.40;;;5.60;91.50;;;;;;5095930;28;20044;-74
2023/01/19 12:29:20;;;;;;;13.18;6.85;;;5.60;91.30;;;;;;5078172;28;20031;-74
2023/01/19 12:32:11;;;;;;;15.63;7.72;;;5.70;91.40;;;;;;5095823;28;20093;-74
2023/01/19 12:34:40;;;;;;;18.48;8.57;;;5.80;91.70;;;;;;5095632;28;20040;-74
2023/01/19 12:37:29;;;;;;;19.13;7.53;;;5.90;91.50;;;;;;5095695;28;20469;-74
2023/01/19 12:39:58;;;;;;;23.25;11.52;;;6.00;90.80;;;;;;5095539;28;20025;-74
2023/01/19 12:42:25;;;;;;;27.63;12.82;;;6.20;91.10;;;;;;5077884;28;20088;-74
2023/01/19 12:45:11;;;;;;;17.17;8.40;;;6.50;90.60;;;;;;5077816;28;20494;-74
2023/01/19 12:47:37;;;;;;;19.00;7.43;;;6.80;90.10;;;;;;5060600;28;20035;-74
2023/01/19 12:50:11;;;;;;;18.38;7.68;;;7.10;87.50;;;;;;5044535;28;20064;-74
2023/01/19 12:52:50;;;;;;;18.35;8.15;;;7.20;87.20;;;;;;5077563;28;20027;-74
2023/01/19 12:55:21;;;;;;;14.60;7.88;;;7.30;86.10;;;;;;5077713;28;20025;-74
2023/01/19 12:58:04;;;;;;;16.35;8.23;;;7.40;86.20;;;;;;5077582;28;20023;-74
2023/01/19 13:00:34;;;;;;;12.23;6.82;;;7.60;85.60;;;;;;5077573;28;20032;-74
2023/01/19 13:03:24;;;;;;;19.80;8.10;;;7.70;84.30;;;;;;5094023;28;20032;-74
2023/01/19 13:05:55;;;;;;;12.60;7.32;;;7.80;83.70;;;;;;5077281;28;20024;-74
2023/01/19 13:08:48;;;;;;;12.35;6.25;;;8.00;83.70;;;;;;5095105;28;20031;-74
2023/01/19 13:11:18;;;;;;;;;;;7.90;82.20;;;;;;5095267;28;20040;-74